createdAt,value
2019-05-21T00:00:40.000Z,99018.52
2019-05-21T00:03:08.681Z,99025.50
2019-05-21T00:05:37.179Z,99019.91
2019-05-21T00:08:05.815Z,99018.00
2019-05-21T00:10:34.480Z,99024.10
2019-05-21T00:13:03.057Z,99023.34
2019-05-21T00:15:31.754Z,99015.53
2019-05-21T00:18:00.324Z,99014.98
2019-05-21T00:20:28.974Z,99017.92
2019-05-21T00:22:57.630Z,99017.22
2019-05-21T00:25:26.208Z,99018.15
2019-05-21T00:27:57.767Z,99011.59
2019-05-21T00:31:02.907Z,99008.45
2019-05-21T00:34:07.754Z,99000.39
2019-05-21T00:37:14.616Z,99003.35
2019-05-21T00:40:19.481Z,99010.52
2019-05-21T00:42:48.142Z,99011.27
2019-05-21T00:45:16.796Z,99010.98
2019-05-21T00:47:45.458Z,99005.46
2019-05-21T00:50:14.202Z,99006.48
2019-05-21T00:52:42.887Z,99005.46
2019-05-21T00:55:11.635Z,98994.37
2019-05-21T00:57:40.219Z,99003.63
2019-05-21T01:00:09.746Z,99002.00
2019-05-21T01:02:38.580Z,99012.48
2019-05-21T01:05:07.332Z,99022.20
2019-05-21T01:07:35.983Z,99024.64
2019-05-21T01:10:06.549Z,99027.61
2019-05-21T01:12:35.060Z,99031.07
2019-05-21T01:15:05.710Z,99031.95
2019-05-21T01:17:34.319Z,99044.62
2019-05-21T01:20:02.964Z,99041.80
2019-05-21T01:22:31.532Z,99041.12
2019-05-21T01:25:00.101Z,99041.84
2019-05-21T01:27:31.074Z,99043.52
2019-05-21T01:29:59.582Z,99040.81
2019-05-21T01:32:28.133Z,99040.00
2019-05-21T01:34:56.791Z,99044.25
2019-05-21T01:37:25.404Z,99052.79
2019-05-21T01:39:53.973Z,99052.30
2019-05-21T01:42:22.597Z,99045.84
2019-05-21T01:44:51.243Z,99047.02
2019-05-21T01:47:19.788Z,99044.30
2019-05-21T01:49:48.434Z,99052.59
2019-05-21T01:52:17.039Z,99062.87
2019-05-21T01:54:45.652Z,99062.98
2019-05-21T01:57:14.246Z,99064.80
2019-05-21T01:59:42.820Z,99060.20
2019-05-21T02:02:11.457Z,99063.32
2019-05-21T02:04:39.929Z,99064.34
2019-05-21T02:07:08.558Z,99075.12
2019-05-21T02:09:38.843Z,99066.14
2019-05-21T02:12:10.648Z,99069.36
2019-05-21T02:14:37.714Z,99067.84
2019-05-21T02:17:06.394Z,99062.77
2019-05-21T02:19:37.366Z,99063.77
2019-05-21T02:22:05.992Z,99059.50
2019-05-21T02:24:34.556Z,99059.81
2019-05-21T02:27:03.135Z,99051.87
2019-05-21T02:29:31.646Z,99049.03
2019-05-21T02:32:00.221Z,99060.80
2019-05-21T02:34:28.898Z,99055.80
2019-05-21T02:36:57.547Z,99048.84
2019-05-21T02:39:26.055Z,99065.79
2019-05-21T02:41:54.732Z,99067.70
2019-05-21T02:44:23.286Z,99064.36
2019-05-21T02:46:51.987Z,99063.52
2019-05-21T02:49:20.635Z,99068.75
2019-05-21T02:51:49.220Z,99078.98
2019-05-21T02:54:17.805Z,99077.66
2019-05-21T02:56:46.495Z,99086.00
2019-05-21T02:59:15.082Z,99093.61
2019-05-21T03:01:45.376Z,99087.55
2019-05-21T03:04:14.032Z,99093.83
2019-05-21T03:06:42.650Z,99098.72
2019-05-21T03:09:11.363Z,99098.44
2019-05-21T03:11:39.988Z,99097.93
2019-05-21T03:14:08.606Z,99093.09
2019-05-21T03:16:37.201Z,99095.59
2019-05-21T03:19:05.861Z,99095.38
2019-05-21T03:21:34.436Z,99096.38
2019-05-21T03:24:02.975Z,99091.58
2019-05-21T03:26:34.039Z,99094.45
2019-05-21T03:29:02.628Z,99100.56
2019-05-21T03:31:31.482Z,99089.42
2019-05-21T03:34:00.161Z,99092.31
2019-05-21T03:36:33.113Z,99094.01
2019-05-21T03:38:59.094Z,99098.94
2019-05-21T03:41:27.776Z,99096.94
2019-05-21T03:43:56.428Z,99106.09
2019-05-21T03:46:25.048Z,99104.05
2019-05-21T03:48:53.685Z,99103.81
2019-05-21T03:51:22.344Z,99099.81
2019-05-21T03:53:51.005Z,99097.16
2019-05-21T03:56:19.532Z,99092.73
2019-05-21T03:58:48.113Z,99097.09
2019-05-21T04:01:16.701Z,99106.47
2019-05-21T04:03:45.352Z,99108.77
2019-05-21T04:06:13.868Z,99108.86
2019-05-21T04:08:42.440Z,99116.84
2019-05-21T04:11:11.194Z,99114.94
2019-05-21T04:13:39.850Z,99119.29
2019-05-21T04:16:10.136Z,99128.70
2019-05-21T04:18:46.175Z,99129.63
2019-05-21T04:21:14.737Z,99133.80
2019-05-21T04:23:43.367Z,99137.68
2019-05-21T04:26:12.005Z,99124.95
2019-05-21T04:28:40.567Z,99123.37
2019-05-21T04:31:09.224Z,99123.84
2019-05-21T04:33:37.801Z,99129.94
2019-05-21T04:36:06.459Z,99129.83
2019-05-21T04:38:35.090Z,99134.77
2019-05-21T04:41:03.740Z,99137.33
2019-05-21T04:43:32.260Z,99141.59
2019-05-21T04:46:00.864Z,99139.16
2019-05-21T04:48:29.438Z,99147.36
2019-05-21T04:50:58.135Z,99150.06
2019-05-21T04:53:26.798Z,99149.59
2019-05-21T04:55:55.449Z,99145.42
2019-05-21T04:58:24.088Z,99147.82
2019-05-21T05:00:52.708Z,99138.16
2019-05-21T05:03:21.348Z,99141.42
2019-05-21T05:05:49.919Z,99142.47
2019-05-21T05:08:18.600Z,99143.53
2019-05-21T05:10:49.269Z,99143.52
2019-05-21T05:13:17.642Z,99134.09
2019-05-21T05:15:46.294Z,99135.59
2019-05-21T05:18:14.856Z,99137.05
2019-05-21T05:20:43.502Z,99138.48
2019-05-21T05:23:12.078Z,99140.17
2019-05-21T05:25:40.765Z,99131.45
2019-05-21T05:28:09.351Z,99135.40
2019-05-21T05:30:37.998Z,99129.44
2019-05-21T05:33:06.691Z,99129.44
2019-05-21T05:35:35.350Z,99123.74
2019-05-21T05:38:04.029Z,99131.31
2019-05-21T05:40:32.783Z,99131.31
2019-05-21T05:43:04.127Z,99136.05
2019-05-21T05:45:32.816Z,99138.84
2019-05-21T05:48:01.388Z,99136.05
2019-05-21T05:50:43.921Z,99136.03
2019-05-21T05:53:12.565Z,99137.63
2019-05-21T05:55:41.125Z,99133.55
2019-05-21T05:58:09.712Z,99129.38
2019-05-21T06:00:38.424Z,99138.48
2019-05-21T06:03:07.075Z,99131.98
2019-05-21T06:05:35.716Z,99132.34
2019-05-21T06:08:04.739Z,99125.72
2019-05-21T06:10:33.558Z,99124.61
2019-05-21T06:13:02.243Z,99122.36
2019-05-21T06:15:30.962Z,99115.17
2019-05-21T06:17:59.527Z,99108.78
2019-05-21T06:20:28.185Z,99109.24
2019-05-21T06:22:56.820Z,99107.83
2019-05-21T06:25:26.486Z,99113.40
2019-05-21T06:27:55.196Z,99109.01
2019-05-21T06:30:23.905Z,99118.81
2019-05-21T06:32:52.461Z,99120.99
2019-05-21T06:35:21.122Z,99117.32
2019-05-21T06:37:49.818Z,99113.33
2019-05-21T06:40:20.047Z,99111.48
2019-05-21T06:42:48.538Z,99113.91
2019-05-21T06:45:17.585Z,99116.63
2019-05-21T06:47:46.127Z,99122.00
2019-05-21T06:50:14.773Z,99124.10
2019-05-21T06:52:45.884Z,99126.04
2019-05-21T06:55:14.544Z,99125.02
2019-05-21T06:57:43.040Z,99124.63
2019-05-21T07:00:11.815Z,99115.09
2019-05-21T07:02:40.604Z,99110.02
2019-05-21T07:05:10.770Z,99112.94
2019-05-21T07:07:40.311Z,99110.52
2019-05-21T07:10:09.243Z,99103.73
2019-05-21T07:12:37.905Z,99102.00
2019-05-21T07:15:07.697Z,99093.55
2019-05-21T07:17:36.256Z,99090.11
2019-05-21T07:20:07.086Z,99079.25
2019-05-21T07:22:35.816Z,99091.86
2019-05-21T07:25:06.397Z,99079.13
2019-05-21T07:27:35.033Z,99080.01
2019-05-21T07:30:03.849Z,99075.00
2019-05-21T07:32:32.507Z,99086.29
2019-05-21T07:35:01.077Z,99085.61
2019-05-21T07:37:29.743Z,99082.83
2019-05-21T07:39:58.432Z,99087.73
2019-05-21T07:42:26.997Z,99084.03
2019-05-21T07:44:55.543Z,99080.80
2019-05-21T07:47:24.228Z,99078.61
2019-05-21T07:49:52.917Z,99076.22
2019-05-21T07:52:21.458Z,99072.40
2019-05-21T07:54:50.032Z,99075.85
2019-05-21T07:57:18.715Z,99073.14
2019-05-21T07:59:47.298Z,99060.03
2019-05-21T08:02:15.937Z,99056.08
2019-05-21T08:04:44.472Z,99046.31
2019-05-21T08:07:13.102Z,99051.25
2019-05-21T08:09:41.780Z,99054.78
2019-05-21T08:12:27.824Z,99051.42
2019-05-21T08:14:40.657Z,99049.77
2019-05-21T08:17:09.278Z,99047.92
2019-05-21T08:19:38.369Z,99045.45
2019-05-21T08:22:07.032Z,99041.95
2019-05-21T08:24:35.666Z,99036.11
2019-05-21T08:27:04.729Z,99031.52
2019-05-21T08:29:33.402Z,99033.32
2019-05-21T08:32:01.902Z,99033.85
2019-05-21T08:34:30.519Z,99022.50
2019-05-21T08:36:59.184Z,99022.93
2019-05-21T08:39:30.650Z,99026.97
2019-05-21T08:41:59.310Z,99027.16
2019-05-21T08:44:27.872Z,99034.16
2019-05-21T08:46:56.586Z,99024.90
2019-05-21T08:49:25.279Z,99013.14
2019-05-21T08:51:53.836Z,99017.44
2019-05-21T08:54:40.648Z,99013.16
2019-05-21T08:57:18.061Z,99008.52
2019-05-21T08:59:47.050Z,99011.14
2019-05-21T09:02:15.784Z,99015.59
2019-05-21T09:04:46.713Z,99010.02
2019-05-21T09:07:14.824Z,99011.73
2019-05-21T09:09:50.039Z,99007.45
2019-05-21T09:12:13.761Z,99004.69
2019-05-21T09:14:42.418Z,99000.32
2019-05-21T09:17:11.080Z,99006.49
2019-05-21T09:19:39.909Z,99006.98
2019-05-21T09:22:08.595Z,99002.47
2019-05-21T09:24:37.239Z,98999.60
2019-05-21T09:27:05.878Z,98997.18
2019-05-21T09:29:34.525Z,98997.30
2019-05-21T09:32:03.246Z,98995.44
2019-05-21T09:34:47.440Z,98989.60
2019-05-21T09:37:02.248Z,98992.08
2019-05-21T09:39:30.926Z,98993.17
2019-05-21T09:41:59.614Z,98990.64
2019-05-21T09:44:28.261Z,98976.56
2019-05-21T09:46:56.938Z,98978.75
2019-05-21T09:49:25.607Z,98982.27
2019-05-21T09:51:54.148Z,98973.89
2019-05-21T09:54:26.016Z,98977.09
2019-05-21T09:56:54.595Z,98963.28
2019-05-21T09:59:24.876Z,98957.22
2019-05-21T10:01:55.114Z,98963.91
2019-05-21T10:04:23.667Z,98961.86
2019-05-21T10:06:52.302Z,98963.91
2019-05-21T10:09:21.219Z,98956.14
2019-05-21T10:11:49.858Z,98953.52
2019-05-21T10:14:18.549Z,98953.36
2019-05-21T10:16:47.272Z,98949.32
2019-05-21T10:19:15.902Z,98949.88
2019-05-21T10:21:44.471Z,98953.99
2019-05-21T10:24:13.102Z,98946.94
2019-05-21T10:26:41.750Z,98942.45
2019-05-21T10:29:10.407Z,98935.72
2019-05-21T10:31:39.039Z,98949.81
2019-05-21T10:34:07.826Z,98944.66
2019-05-21T10:36:36.411Z,98943.98
2019-05-21T10:39:07.385Z,98925.94
2019-05-21T10:41:38.822Z,98930.36
2019-05-21T10:44:07.611Z,98934.39
2019-05-21T10:46:36.257Z,98919.28
2019-05-21T10:49:05.338Z,98917.05
2019-05-21T10:51:33.972Z,98917.67
2019-05-21T10:54:03.385Z,98912.48
2019-05-21T10:56:46.706Z,98896.79
2019-05-21T10:59:05.250Z,98901.03
2019-05-21T11:01:44.552Z,98910.45
2019-05-21T11:04:20.838Z,98910.69
2019-05-21T11:06:49.461Z,98900.91
2019-05-21T11:09:22.270Z,98895.63
2019-05-21T11:11:50.956Z,98887.48
2019-05-21T11:14:19.619Z,98886.77
2019-05-21T11:16:48.295Z,98887.16
2019-05-21T11:19:16.978Z,98884.30
2019-05-21T11:21:48.363Z,98885.99
2019-05-21T11:24:17.075Z,98892.67
2019-05-21T11:26:45.707Z,98895.09
2019-05-21T11:29:14.266Z,98895.17
2019-05-21T11:31:55.717Z,98892.45
2019-05-21T11:34:13.280Z,98881.21
2019-05-21T11:36:41.971Z,98886.72
2019-05-21T11:39:10.706Z,98895.05
2019-05-21T11:41:39.375Z,98896.73
2019-05-21T11:44:08.113Z,98893.13
2019-05-21T11:46:36.824Z,98900.77
2019-05-21T11:49:05.797Z,98902.69
2019-05-21T11:51:34.440Z,98901.19
2019-05-21T11:54:03.018Z,98899.33
2019-05-21T11:56:31.585Z,98896.52
2019-05-21T11:59:00.190Z,98897.34
2019-05-21T12:01:28.801Z,98893.16
2019-05-21T12:03:57.389Z,98888.50
2019-05-21T12:06:26.050Z,98889.40
2019-05-21T12:08:57.125Z,98882.68
2019-05-21T12:11:24.855Z,98876.33
2019-05-21T12:13:53.469Z,98864.62
2019-05-21T12:16:22.138Z,98857.13
2019-05-21T12:18:51.032Z,98856.28
2019-05-21T12:21:19.622Z,98856.66
2019-05-21T12:23:48.255Z,98863.14
2019-05-21T12:26:16.958Z,98865.25
2019-05-21T12:28:45.585Z,98868.95
2019-05-21T12:31:14.240Z,98872.94
2019-05-21T12:33:42.925Z,98866.49
2019-05-21T12:36:11.497Z,98862.97
2019-05-21T12:38:40.074Z,98861.77
2019-05-21T12:41:08.640Z,98857.77
2019-05-21T12:43:40.284Z,98854.66
2019-05-21T12:46:08.947Z,98843.70
2019-05-21T12:48:37.598Z,98839.93
2019-05-21T12:51:06.237Z,98844.98
2019-05-21T12:53:34.855Z,98849.46
2019-05-21T12:56:03.499Z,98836.42
2019-05-21T12:58:32.002Z,98850.96
2019-05-21T13:01:00.706Z,98844.64
2019-05-21T13:03:29.344Z,98857.09
2019-05-21T13:05:58.038Z,98846.33
2019-05-21T13:08:26.696Z,98844.69
2019-05-21T13:10:55.352Z,98837.45
2019-05-21T13:13:23.996Z,98846.80
2019-05-21T13:15:52.645Z,98843.53
2019-05-21T13:18:21.316Z,98844.61
2019-05-21T13:20:49.936Z,98848.47
2019-05-21T13:23:18.522Z,98845.30
2019-05-21T13:25:47.137Z,98842.77
2019-05-21T13:28:15.849Z,98844.14
2019-05-21T13:30:44.447Z,98844.70
2019-05-21T13:33:19.367Z,98850.14
2019-05-21T13:35:46.238Z,98843.52
2019-05-21T13:38:14.924Z,98842.53
2019-05-21T13:40:43.729Z,98840.76
2019-05-21T13:43:12.377Z,98837.66
2019-05-21T13:45:41.037Z,98846.66
2019-05-21T13:48:09.718Z,98835.02
2019-05-21T13:50:38.291Z,98837.48
2019-05-21T13:53:06.940Z,98831.70
2019-05-21T13:55:35.514Z,98832.84
2019-05-21T13:58:04.365Z,98833.26
2019-05-21T14:00:35.039Z,98838.48
2019-05-21T14:03:06.663Z,98829.55
2019-05-21T14:05:35.294Z,98832.84
2019-05-21T14:08:03.878Z,98822.91
2019-05-21T14:10:32.521Z,98824.83
2019-05-21T14:13:01.247Z,98819.05
2019-05-21T14:15:30.006Z,98819.23
2019-05-21T14:17:58.557Z,98815.52
2019-05-21T14:20:27.190Z,98809.36
2019-05-21T14:22:55.760Z,98813.89
2019-05-21T14:25:24.468Z,98811.95
2019-05-21T14:27:53.118Z,98816.80
2019-05-21T14:30:21.881Z,98820.78
2019-05-21T14:32:50.554Z,98823.78
2019-05-21T14:35:19.169Z,98825.08
2019-05-21T14:37:47.807Z,98822.03
2019-05-21T14:40:31.011Z,98822.12
2019-05-21T14:42:59.526Z,98826.05
2019-05-21T14:45:18.309Z,98818.02
2019-05-21T14:47:46.938Z,98815.02
2019-05-21T14:50:16.627Z,98814.88
2019-05-21T14:52:45.124Z,98810.16
2019-05-21T14:55:13.775Z,98806.44
2019-05-21T14:57:42.409Z,98803.91
2019-05-21T15:00:22.428Z,98803.94
2019-05-21T15:02:51.061Z,98801.36
2019-05-21T15:05:22.518Z,98797.06
2019-05-21T15:07:51.167Z,98804.76
2019-05-21T15:10:19.806Z,98802.44
2019-05-21T15:12:48.486Z,98797.84
2019-05-21T15:15:17.304Z,98796.02
2019-05-21T15:17:45.858Z,98794.09
2019-05-21T15:20:34.943Z,98791.02
2019-05-21T15:23:03.578Z,98791.39
2019-05-21T15:25:32.362Z,98796.33
2019-05-21T15:28:00.996Z,98788.39
2019-05-21T15:30:29.564Z,98790.33
2019-05-21T15:32:58.250Z,98795.23
2019-05-21T15:35:26.896Z,98798.83
2019-05-21T15:37:55.520Z,98801.41
2019-05-21T15:40:24.145Z,98801.20
2019-05-21T15:42:53.805Z,98801.13
2019-05-21T15:45:22.837Z,98812.47
2019-05-21T15:47:54.455Z,98809.11
2019-05-21T15:50:23.139Z,98818.20
2019-05-21T15:52:57.529Z,98818.19
2019-05-21T15:55:26.140Z,98822.66
2019-05-21T15:57:54.774Z,98827.14
2019-05-21T16:00:23.789Z,98829.86
2019-05-21T16:02:52.350Z,98829.33
2019-05-21T16:05:21.061Z,98828.18
2019-05-21T16:07:49.621Z,98833.42
2019-05-21T16:10:18.269Z,98831.12
2019-05-21T16:12:46.849Z,98833.56
2019-05-21T16:15:15.526Z,98830.00
2019-05-21T16:17:44.088Z,98835.13
2019-05-21T16:20:17.103Z,98836.86
2019-05-21T16:22:48.730Z,98837.74
2019-05-21T16:25:17.379Z,98839.78
2019-05-21T16:27:45.943Z,98835.96
2019-05-21T16:30:14.723Z,98833.19
2019-05-21T16:32:43.297Z,98843.59
2019-05-21T16:35:11.916Z,98834.63
2019-05-21T16:37:40.522Z,98841.70
2019-05-21T16:40:09.370Z,98848.66
2019-05-21T16:42:38.118Z,98858.66
2019-05-21T16:45:07.655Z,98859.83
2019-05-21T16:47:45.684Z,98866.24
2019-05-21T16:50:10.547Z,98870.78
2019-05-21T16:52:39.229Z,98873.36
2019-05-21T16:55:08.630Z,98872.61
2019-05-21T16:57:37.343Z,98879.48
2019-05-21T17:00:07.783Z,98882.50
2019-05-21T17:02:36.417Z,98890.55
2019-05-21T17:05:07.039Z,98891.17
2019-05-21T17:07:38.506Z,98902.08
2019-05-21T17:10:07.958Z,98909.22
2019-05-21T17:12:36.618Z,98913.33
2019-05-21T17:15:12.085Z,98913.83
2019-05-21T17:17:40.619Z,98926.83
2019-05-21T17:20:09.746Z,98924.94
2019-05-21T17:22:39.122Z,98928.77
2019-05-21T17:25:08.555Z,98933.64
2019-05-21T17:27:37.192Z,98936.36
2019-05-21T17:30:09.830Z,98943.33
2019-05-21T17:32:38.501Z,98952.24
2019-05-21T17:35:07.913Z,98956.20
2019-05-21T17:37:36.544Z,98963.13
2019-05-21T17:40:05.989Z,98967.44
2019-05-21T17:42:34.638Z,98972.45
2019-05-21T17:45:04.164Z,98974.50
2019-05-21T17:47:32.778Z,98980.42
2019-05-21T17:50:01.410Z,98986.92
2019-05-21T17:52:30.066Z,98992.83
2019-05-21T17:54:58.805Z,98991.25
2019-05-21T17:57:29.130Z,98997.70
2019-05-21T17:59:57.703Z,99001.87
2019-05-21T18:02:28.138Z,99005.00
2019-05-21T18:05:00.166Z,99009.70
2019-05-21T18:07:28.889Z,99011.11
2019-05-21T18:09:58.329Z,99016.65
2019-05-21T18:12:31.929Z,99016.80
2019-05-21T18:14:58.349Z,99021.59
2019-05-21T18:17:28.660Z,99020.11
2019-05-21T18:19:57.225Z,99028.76
2019-05-21T18:22:26.695Z,99037.39
2019-05-21T18:24:55.290Z,99035.58
2019-05-21T18:27:24.126Z,99039.36
2019-05-21T18:29:52.734Z,99040.87
2019-05-21T18:32:21.473Z,99052.17
2019-05-21T18:34:53.016Z,99051.95
2019-05-21T18:37:21.629Z,99059.18
2019-05-21T18:39:50.260Z,99056.73
2019-05-21T18:42:22.753Z,99061.67
2019-05-21T18:44:51.553Z,99066.79
2019-05-21T18:47:20.365Z,99076.33
2019-05-21T18:49:48.938Z,99080.66
2019-05-21T18:52:17.513Z,99086.13
2019-05-21T18:54:47.955Z,99097.22
2019-05-21T18:57:16.708Z,99088.91
2019-05-21T18:59:45.274Z,99104.53
2019-05-21T19:02:14.986Z,99113.39
2019-05-21T19:04:43.635Z,99116.25
2019-05-21T19:07:15.565Z,99121.03
2019-05-21T19:09:44.206Z,99131.71
2019-05-21T19:12:12.775Z,99138.72
2019-05-21T19:14:45.045Z,99142.92
2019-05-21T19:17:18.784Z,99153.06
2019-05-21T19:19:47.371Z,99153.56
2019-05-21T19:22:15.932Z,99155.64
2019-05-21T19:24:44.600Z,99160.72
2019-05-21T19:27:13.233Z,99167.81
2019-05-21T19:29:41.903Z,99175.50
2019-05-21T19:32:10.539Z,99171.13
2019-05-21T19:34:39.035Z,99178.56
2019-05-21T19:37:10.741Z,99180.22
2019-05-21T19:39:39.723Z,99182.06
2019-05-21T19:42:08.446Z,99190.29
2019-05-21T19:44:37.051Z,99196.92
2019-05-21T19:47:05.617Z,99196.92
2019-05-21T19:49:34.252Z,99198.31
2019-05-21T19:52:02.886Z,99207.30
2019-05-21T19:54:31.564Z,99206.34
2019-05-21T19:57:00.194Z,99208.71
2019-05-21T19:59:28.770Z,99213.50
2019-05-21T20:01:57.274Z,99210.73
2019-05-21T20:04:26.483Z,99205.64
2019-05-21T20:06:55.223Z,99209.83
2019-05-21T20:09:26.914Z,99209.94
2019-05-21T20:11:58.518Z,99214.37
2019-05-21T20:14:27.761Z,99214.37
2019-05-21T20:16:56.417Z,99207.92
2019-05-21T20:19:25.351Z,99204.27
2019-05-21T20:21:54.603Z,99202.91
2019-05-21T20:24:24.115Z,99214.83
2019-05-21T20:26:52.683Z,99222.06
2019-05-21T20:29:22.063Z,99220.34
2019-05-21T20:31:50.626Z,99231.11
2019-05-21T20:34:19.326Z,99231.62
2019-05-21T20:36:48.110Z,99236.18
2019-05-21T20:39:18.549Z,99233.84
2019-05-21T20:41:48.070Z,99233.95
2019-05-21T20:44:18.289Z,99240.47
2019-05-21T20:46:47.003Z,99231.64
2019-05-21T20:49:16.247Z,99233.20
2019-05-21T20:51:45.035Z,99241.85
2019-05-21T20:54:16.324Z,99236.92
2019-05-21T20:56:45.140Z,99235.06
2019-05-21T20:59:13.777Z,99233.10
2019-05-21T21:01:43.798Z,99231.45
2019-05-21T21:04:12.709Z,99231.45
2019-05-21T21:06:41.867Z,99241.27
2019-05-21T21:09:11.978Z,99242.12
2019-05-21T21:11:41.686Z,99238.17
2019-05-21T21:14:17.963Z,99231.59
2019-05-21T21:16:43.630Z,99241.28
2019-05-21T21:19:12.537Z,99233.34
2019-05-21T21:21:41.964Z,99235.00
2019-05-21T21:24:10.805Z,99229.77
2019-05-21T21:26:39.369Z,99227.33
2019-05-21T21:29:09.203Z,99221.58
2019-05-21T21:31:37.919Z,99222.90
2019-05-21T21:34:06.570Z,99223.03
2019-05-21T21:36:35.681Z,99220.89
2019-05-21T21:39:06.638Z,99215.87
2019-05-21T21:41:40.054Z,99223.03
2019-05-21T21:44:08.690Z,99219.02
2019-05-21T21:46:37.323Z,99221.59
2019-05-21T21:49:06.344Z,99219.86
2019-05-21T21:51:35.540Z,99222.77
2019-05-21T21:54:04.480Z,99223.61
2019-05-21T21:56:33.133Z,99223.04
2019-05-21T21:59:01.828Z,99228.24
2019-05-21T22:01:54.497Z,99224.83
2019-05-21T22:04:28.116Z,99233.37
2019-05-21T22:06:56.793Z,99233.37
2019-05-21T22:09:27.053Z,99234.52
2019-05-21T22:11:56.858Z,99236.78
2019-05-21T22:14:26.331Z,99240.23
2019-05-21T22:16:58.719Z,99248.09
2019-05-21T22:19:27.369Z,99244.11
2019-05-21T22:21:57.085Z,99247.35
2019-05-21T22:24:26.196Z,99249.94
2019-05-21T22:26:54.786Z,99246.55
2019-05-21T22:29:23.370Z,99239.34
2019-05-21T22:31:52.771Z,99236.42
2019-05-21T22:34:21.504Z,99249.20
2019-05-21T22:36:50.144Z,99252.20
2019-05-21T22:39:20.482Z,99250.16
2019-05-21T22:41:49.065Z,99252.97
2019-05-21T22:44:17.712Z,99247.97
2019-05-21T22:46:48.058Z,99245.81
2019-05-21T22:49:16.676Z,99247.86
2019-05-21T22:51:45.340Z,99246.00
2019-05-21T22:54:13.992Z,99247.31
2019-05-21T22:56:42.739Z,99255.02
2019-05-21T22:59:11.304Z,99247.25
2019-05-21T23:01:40.040Z,99244.39
2019-05-21T23:04:09.254Z,99243.81
2019-05-21T23:06:38.245Z,99243.62
2019-05-21T23:09:08.454Z,99228.23
2019-05-21T23:11:37.203Z,99232.53
2019-05-21T23:14:05.955Z,99231.35
2019-05-21T23:16:34.696Z,99236.32
2019-05-21T23:19:03.915Z,99244.06
2019-05-21T23:21:34.338Z,99240.02
2019-05-21T23:24:03.588Z,99250.42
2019-05-21T23:26:33.735Z,99247.76
2019-05-21T23:29:02.741Z,99250.04
2019-05-21T23:31:32.357Z,99249.19
2019-05-21T23:36:47.684Z,99249.23
2019-05-21T23:39:17.943Z,99245.02
2019-05-21T23:41:46.744Z,99245.70
2019-05-21T23:44:15.592Z,99245.21
2019-05-21T23:46:44.344Z,99237.53
2019-05-21T23:49:12.918Z,99244.09
2019-05-21T23:51:41.576Z,99244.09
2019-05-21T23:54:10.281Z,99241.98
2019-05-21T23:56:38.929Z,99242.45
2019-05-21T23:59:07.940Z,99235.78
